sensor_id;sensor_type;location;lat;lon;timestamp;P1;durP1;ratioP1;P2;durP2;ratioP2
17686;SDS011;8962;52.538;13.266;2022-12-11T00:01:41;26.63;;;13.98;;
17686;SDS011;8962;52.538;13.266;2022-12-11T00:04:08;24.42;;;13.38;;
17686;SDS011;8962;52.538;13.266;2022-12-11T00:06:35;24.98;;;13.05;;
17686;SDS011;8962;52.538;13.266;2022-12-11T00:09:02;28.02;;;13.27;;
17686;SDS011;8962;52.538;13.266;2022-12-11T00:11:29;29.00;;;13.52;;
17686;SDS011;8962;52.538;13.266;2022-12-11T00:13:56;23.45;;;13.07;;
17686;SDS011;8962;52.538;13.266;2022-12-11T00:16:25;26.38;;;13.65;;
17686;SDS011;8962;52.538;13.266;2022-12-11T00:18:52;22.27;;;12.80;;
17686;SDS011;8962;52.538;13.266;2022-12-11T00:21:20;27.77;;;14.55;;
17686;SDS011;8962;52.538;13.266;2022-12-11T00:23:47;26.83;;;14.18;;
17686;SDS011;8962;52.538;13.266;2022-12-11T00:26:14;27.52;;;14.00;;
17686;SDS011;8962;52.538;13.266;2022-12-11T00:28:41;24.27;;;13.43;;
17686;SDS011;8962;52.538;13.266;2022-12-11T00:31:10;25.77;;;14.60;;
17686;SDS011;8962;52.538;13.266;2022-12-11T00:33:41;28.10;;;14.48;;
17686;SDS011;8962;52.538;13.266;2022-12-11T00:36:10;26.42;;;14.80;;
17686;SDS011;8962;52.538;13.266;2022-12-11T00:38:39;27.42;;;14.60;;
17686;SDS011;8962;52.538;13.266;2022-12-11T00:41:07;27.30;;;14.60;;
17686;SDS011;8962;52.538;13.266;2022-12-11T00:43:34;25.88;;;13.40;;
17686;SDS011;8962;52.538;13.266;2022-12-11T00:46:02;27.52;;;14.35;;
17686;SDS011;8962;52.538;13.266;2022-12-11T00:48:29;26.02;;;13.82;;
17686;SDS011;8962;52.538;13.266;2022-12-11T00:50:58;27.10;;;13.85;;
17686;SDS011;8962;52.538;13.266;2022-12-11T00:53:27;26.30;;;13.80;;
17686;SDS011;8962;52.538;13.266;2022-12-11T00:55:54;24.98;;;13.73;;
17686;SDS011;8962;52.538;13.266;2022-12-11T00:58:21;25.60;;;13.35;;
17686;SDS011;8962;52.538;13.266;2022-12-11T01:00:50;27.75;;;14.55;;
17686;SDS011;8962;52.538;13.266;2022-12-11T01:03:17;25.27;;;13.45;;
17686;SDS011;8962;52.538;13.266;2022-12-11T01:05:51;26.17;;;14.38;;
17686;SDS011;8962;52.538;13.266;2022-12-11T01:08:19;25.05;;;13.07;;
17686;SDS011;8962;52.538;13.266;2022-12-11T01:10:47;23.67;;;13.25;;
17686;SDS011;8962;52.538;13.266;2022-12-11T01:13:13;24.67;;;13.43;;
17686;SDS011;8962;52.538;13.266;2022-12-11T01:15:41;26.00;;;14.27;;
17686;SDS011;8962;52.538;13.266;2022-12-11T01:18:10;27.13;;;14.73;;
17686;SDS011;8962;52.538;13.266;2022-12-11T01:20:39;24.33;;;14.05;;
17686;SDS011;8962;52.538;13.266;2022-12-11T01:23:08;25.20;;;14.00;;
17686;SDS011;8962;52.538;13.266;2022-12-11T01:25:40;25.77;;;14.18;;
17686;SDS011;8962;52.538;13.266;2022-12-11T01:28:08;27.02;;;14.00;;
17686;SDS011;8962;52.538;13.266;2022-12-11T01:30:35;25.67;;;13.77;;
17686;SDS011;8962;52.538;13.266;2022-12-11T01:33:03;29.85;;;13.68;;
17686;SDS011;8962;52.538;13.266;2022-12-11T01:35:30;29.63;;;14.73;;
17686;SDS011;8962;52.538;13.266;2022-12-11T01:37:58;26.10;;;13.98;;
17686;SDS011;8962;52.538;13.266;2022-12-11T01:40:27;28.45;;;14.50;;
17686;SDS011;8962;52.538;13.266;2022-12-11T01:42:55;25.85;;;13.85;;
17686;SDS011;8962;52.538;13.266;2022-12-11T01:48:13;26.65;;;13.98;;
17686;SDS011;8962;52.538;13.266;2022-12-11T01:50:43;27.13;;;13.98;;
17686;SDS011;8962;52.538;13.266;2022-12-11T01:53:14;30.35;;;14.43;;
17686;SDS011;8962;52.538;13.266;2022-12-11T01:55:45;26.90;;;14.52;;
17686;SDS011;8962;52.538;13.266;2022-12-11T01:58:15;28.00;;;14.05;;
17686;SDS011;8962;52.538;13.266;2022-12-11T02:00:44;28.92;;;14.52;;
17686;SDS011;8962;52.538;13.266;2022-12-11T02:03:11;26.70;;;13.82;;
17686;SDS011;8962;52.538;13.266;2022-12-11T02:05:38;30.98;;;15.13;;
17686;SDS011;8962;52.538;13.266;2022-12-11T02:08:07;26.00;;;13.73;;
17686;SDS011;8962;52.538;13.266;2022-12-11T02:10:39;26.80;;;14.40;;
17686;SDS011;8962;52.538;13.266;2022-12-11T02:13:12;30.02;;;14.85;;
17686;SDS011;8962;52.538;13.266;2022-12-11T02:15:45;27.35;;;14.10;;
17686;SDS011;8962;52.538;13.266;2022-12-11T02:18:19;29.73;;;16.13;;
17686;SDS011;8962;52.538;13.266;2022-12-11T02:20:53;31.90;;;14.77;;
17686;SDS011;8962;52.538;13.266;2022-12-11T02:23:34;33.10;;;14.98;;
17686;SDS011;8962;52.538;13.266;2022-12-11T02:26:20;28.42;;;14.15;;
17686;SDS011;8962;52.538;13.266;2022-12-11T02:29:00;29.67;;;15.15;;
17686;SDS011;8962;52.538;13.266;2022-12-11T02:31:31;30.08;;;15.48;;
17686;SDS011;8962;52.538;13.266;2022-12-11T02:34:04;30.52;;;14.77;;
17686;SDS011;8962;52.538;13.266;2022-12-11T02:36:37;26.83;;;14.90;;
17686;SDS011;8962;52.538;13.266;2022-12-11T02:39:08;28.70;;;15.23;;
17686;SDS011;8962;52.538;13.266;2022-12-11T02:41:37;26.50;;;13.80;;
17686;SDS011;8962;52.538;13.266;2022-12-11T02:44:07;30.52;;;15.35;;
17686;SDS011;8962;52.538;13.266;2022-12-11T02:46:39;28.88;;;15.52;;
17686;SDS011;8962;52.538;13.266;2022-12-11T02:49:09;28.73;;;15.18;;
17686;SDS011;8962;52.538;13.266;2022-12-11T02:51:41;34.67;;;16.02;;
17686;SDS011;8962;52.538;13.266;2022-12-11T02:54:10;31.70;;;15.65;;
17686;SDS011;8962;52.538;13.266;2022-12-11T02:56:42;28.70;;;15.10;;
17686;SDS011;8962;52.538;13.266;2022-12-11T02:59:14;28.70;;;14.73;;
17686;SDS011;8962;52.538;13.266;2022-12-11T03:01:49;31.58;;;15.45;;
17686;SDS011;8962;52.538;13.266;2022-12-11T03:04:16;31.15;;;14.50;;
17686;SDS011;8962;52.538;13.266;2022-12-11T03:06:44;28.80;;;14.40;;
17686;SDS011;8962;52.538;13.266;2022-12-11T03:09:16;33.47;;;15.43;;
17686;SDS011;8962;52.538;13.266;2022-12-11T03:11:44;29.58;;;15.18;;
17686;SDS011;8962;52.538;13.266;2022-12-11T03:14:13;26.67;;;14.60;;
17686;SDS011;8962;52.538;13.266;2022-12-11T03:16:44;28.33;;;15.43;;
17686;SDS011;8962;52.538;13.266;2022-12-11T03:19:21;33.83;;;16.67;;
17686;SDS011;8962;52.538;13.266;2022-12-11T03:21:57;28.90;;;15.15;;
17686;SDS011;8962;52.538;13.266;2022-12-11T03:24:33;33.58;;;15.25;;
17686;SDS011;8962;52.538;13.266;2022-12-11T03:27:08;28.65;;;15.30;;
17686;SDS011;8962;52.538;13.266;2022-12-11T03:29:44;27.33;;;15.05;;
17686;SDS011;8962;52.538;13.266;2022-12-11T03:32:17;29.88;;;15.43;;
17686;SDS011;8962;52.538;13.266;2022-12-11T03:34:49;29.58;;;15.02;;
17686;SDS011;8962;52.538;13.266;2022-12-11T03:37:21;28.25;;;15.20;;
17686;SDS011;8962;52.538;13.266;2022-12-11T03:39:51;29.50;;;15.20;;
17686;SDS011;8962;52.538;13.266;2022-12-11T03:42:22;28.77;;;15.20;;
17686;SDS011;8962;52.538;13.266;2022-12-11T03:44:52;31.02;;;15.70;;
17686;SDS011;8962;52.538;13.266;2022-12-11T03:47:23;30.02;;;15.48;;
17686;SDS011;8962;52.538;13.266;2022-12-11T03:49:56;29.75;;;15.57;;
17686;SDS011;8962;52.538;13.266;2022-12-11T03:52:25;29.38;;;15.93;;
17686;SDS011;8962;52.538;13.266;2022-12-11T03:54:54;26.40;;;14.25;;
17686;SDS011;8962;52.538;13.266;2022-12-11T03:57:28;28.05;;;14.60;;
17686;SDS011;8962;52.538;13.266;2022-12-11T04:00:00;26.60;;;14.98;;
17686;SDS011;8962;52.538;13.266;2022-12-11T04:02:37;26.95;;;14.63;;
17686;SDS011;8962;52.538;13.266;2022-12-11T04:05:04;26.52;;;14.70;;
17686;SDS011;8962;52.538;13.266;2022-12-11T04:07:33;28.77;;;14.93;;
17686;SDS011;8962;52.538;13.266;2022-12-11T04:10:00;28.92;;;15.32;;
17686;SDS011;8962;52.538;13.266;2022-12-11T04:12:27;29.48;;;15.25;;
17686;SDS011;8962;52.538;13.266;2022-12-11T04:14:56;30.15;;;15.52;;
17686;SDS011;8962;52.538;13.266;2022-12-11T04:17:29;31.17;;;15.05;;
17686;SDS011;8962;52.538;13.266;2022-12-11T04:20:16;27.52;;;14.80;;
17686;SDS011;8962;52.538;13.266;2022-12-11T04:23:03;28.38;;;15.00;;
17686;SDS011;8962;52.538;13.266;2022-12-11T04:25:47;31.70;;;15.98;;
17686;SDS011;8962;52.538;13.266;2022-12-11T04:28:15;29.35;;;14.48;;
17686;SDS011;8962;52.538;13.266;2022-12-11T04:30:46;33.17;;;15.80;;
17686;SDS011;8962;52.538;13.266;2022-12-11T04:33:16;31.33;;;15.20;;
17686;SDS011;8962;52.538;13.266;2022-12-11T04:35:42;29.73;;;15.55;;
17686;SDS011;8962;52.538;13.266;2022-12-11T04:38:10;29.35;;;14.23;;
17686;SDS011;8962;52.538;13.266;2022-12-11T04:40:38;31.02;;;15.85;;
17686;SDS011;8962;52.538;13.266;2022-12-11T04:43:05;28.40;;;15.02;;
17686;SDS011;8962;52.538;13.266;2022-12-11T04:45:33;31.88;;;15.50;;
17686;SDS011;8962;52.538;13.266;2022-12-11T04:48:00;31.00;;;14.70;;
17686;SDS011;8962;52.538;13.266;2022-12-11T04:50:28;28.08;;;15.02;;
17686;SDS011;8962;52.538;13.266;2022-12-11T04:52:55;33.22;;;15.13;;
17686;SDS011;8962;52.538;13.266;2022-12-11T04:55:23;34.00;;;15.50;;
17686;SDS011;8962;52.538;13.266;2022-12-11T04:57:51;32.08;;;16.05;;
17686;SDS011;8962;52.538;13.266;2022-12-11T05:00:18;31.70;;;15.02;;
17686;SDS011;8962;52.538;13.266;2022-12-11T05:02:49;27.95;;;14.23;;
17686;SDS011;8962;52.538;13.266;2022-12-11T05:05:18;31.70;;;15.73;;
17686;SDS011;8962;52.538;13.266;2022-12-11T05:07:46;32.30;;;15.23;;
17686;SDS011;8962;52.538;13.266;2022-12-11T05:10:15;28.67;;;14.52;;
17686;SDS011;8962;52.538;13.266;2022-12-11T05:12:42;29.67;;;15.10;;
17686;SDS011;8962;52.538;13.266;2022-12-11T05:15:11;28.10;;;13.82;;
17686;SDS011;8962;52.538;13.266;2022-12-11T05:17:40;32.22;;;15.10;;
17686;SDS011;8962;52.538;13.266;2022-12-11T05:20:10;29.55;;;14.68;;
17686;SDS011;8962;52.538;13.266;2022-12-11T05:22:38;32.03;;;16.00;;
17686;SDS011;8962;52.538;13.266;2022-12-11T05:25:07;27.52;;;14.82;;
17686;SDS011;8962;52.538;13.266;2022-12-11T05:27:35;29.73;;;15.02;;
17686;SDS011;8962;52.538;13.266;2022-12-11T05:30:02;32.60;;;15.40;;
17686;SDS011;8962;52.538;13.266;2022-12-11T05:32:32;29.73;;;14.50;;
17686;SDS011;8962;52.538;13.266;2022-12-11T05:35:00;29.70;;;15.05;;
17686;SDS011;8962;52.538;13.266;2022-12-11T05:37:29;35.65;;;16.35;;
17686;SDS011;8962;52.538;13.266;2022-12-11T05:39:59;28.65;;;15.07;;
17686;SDS011;8962;52.538;13.266;2022-12-11T05:42:29;27.65;;;14.82;;
17686;SDS011;8962;52.538;13.266;2022-12-11T05:44:57;30.70;;;14.60;;
17686;SDS011;8962;52.538;13.266;2022-12-11T05:47:24;29.17;;;14.40;;
17686;SDS011;8962;52.538;13.266;2022-12-11T05:49:52;31.10;;;14.60;;
17686;SDS011;8962;52.538;13.266;2022-12-11T05:52:19;26.80;;;14.20;;
17686;SDS011;8962;52.538;13.266;2022-12-11T05:54:47;27.17;;;14.52;;
17686;SDS011;8962;52.538;13.266;2022-12-11T05:57:15;28.00;;;14.85;;
17686;SDS011;8962;52.538;13.266;2022-12-11T05:59:44;29.58;;;14.27;;
17686;SDS011;8962;52.538;13.266;2022-12-11T06:02:13;25.17;;;14.65;;
17686;SDS011;8962;52.538;13.266;2022-12-11T06:04:40;25.90;;;13.95;;
17686;SDS011;8962;52.538;13.266;2022-12-11T06:07:07;23.92;;;12.80;;
17686;SDS011;8962;52.538;13.266;2022-12-11T06:09:35;21.67;;;11.43;;
17686;SDS011;8962;52.538;13.266;2022-12-11T06:12:03;24.70;;;11.55;;
17686;SDS011;8962;52.538;13.266;2022-12-11T06:14:30;23.08;;;11.38;;
17686;SDS011;8962;52.538;13.266;2022-12-11T06:17:01;20.65;;;11.38;;
17686;SDS011;8962;52.538;13.266;2022-12-11T06:19:29;19.45;;;10.52;;
17686;SDS011;8962;52.538;13.266;2022-12-11T06:21:56;23.27;;;12.13;;
17686;SDS011;8962;52.538;13.266;2022-12-11T06:24:24;21.63;;;10.85;;
17686;SDS011;8962;52.538;13.266;2022-12-11T06:26:51;24.73;;;11.98;;
17686;SDS011;8962;52.538;13.266;2022-12-11T06:29:23;22.20;;;10.95;;
17686;SDS011;8962;52.538;13.266;2022-12-11T06:31:51;21.05;;;10.93;;
17686;SDS011;8962;52.538;13.266;2022-12-11T06:34:20;20.20;;;11.70;;
17686;SDS011;8962;52.538;13.266;2022-12-11T06:36:47;19.30;;;11.00;;
17686;SDS011;8962;52.538;13.266;2022-12-11T06:39:14;23.30;;;11.43;;
17686;SDS011;8962;52.538;13.266;2022-12-11T06:41:44;22.85;;;11.27;;
17686;SDS011;8962;52.538;13.266;2022-12-11T06:44:13;20.40;;;11.35;;
17686;SDS011;8962;52.538;13.266;2022-12-11T06:46:41;23.10;;;11.82;;
17686;SDS011;8962;52.538;13.266;2022-12-11T06:49:10;21.67;;;10.50;;
17686;SDS011;8962;52.538;13.266;2022-12-11T06:51:38;18.05;;;10.25;;
17686;SDS011;8962;52.538;13.266;2022-12-11T06:54:05;20.30;;;11.27;;
17686;SDS011;8962;52.538;13.266;2022-12-11T06:56:33;20.92;;;11.75;;
17686;SDS011;8962;52.538;13.266;2022-12-11T06:59:00;22.60;;;11.30;;
17686;SDS011;8962;52.538;13.266;2022-12-11T07:01:28;23.02;;;12.07;;
17686;SDS011;8962;52.538;13.266;2022-12-11T07:03:56;20.85;;;11.45;;
17686;SDS011;8962;52.538;13.266;2022-12-11T07:06:26;22.63;;;11.10;;
17686;SDS011;8962;52.538;13.266;2022-12-11T07:08:55;21.30;;;11.80;;
17686;SDS011;8962;52.538;13.266;2022-12-11T07:11:23;21.15;;;10.93;;
17686;SDS011;8962;52.538;13.266;2022-12-11T07:13:50;23.88;;;12.13;;
17686;SDS011;8962;52.538;13.266;2022-12-11T07:16:18;19.15;;;10.68;;
17686;SDS011;8962;52.538;13.266;2022-12-11T07:18:47;23.95;;;11.63;;
17686;SDS011;8962;52.538;13.266;2022-12-11T07:21:16;23.33;;;12.18;;
17686;SDS011;8962;52.538;13.266;2022-12-11T07:23:47;21.38;;;11.77;;
17686;SDS011;8962;52.538;13.266;2022-12-11T07:26:18;22.40;;;11.55;;
17686;SDS011;8962;52.538;13.266;2022-12-11T07:28:47;22.33;;;11.93;;
17686;SDS011;8962;52.538;13.266;2022-12-11T07:31:15;22.08;;;11.77;;
17686;SDS011;8962;52.538;13.266;2022-12-11T07:33:44;22.13;;;11.73;;
17686;SDS011;8962;52.538;13.266;2022-12-11T07:36:12;20.98;;;11.25;;
17686;SDS011;8962;52.538;13.266;2022-12-11T07:38:40;23.50;;;11.68;;
17686;SDS011;8962;52.538;13.266;2022-12-11T07:41:11;20.55;;;11.15;;
17686;SDS011;8962;52.538;13.266;2022-12-11T07:43:48;20.67;;;11.07;;
17686;SDS011;8962;52.538;13.266;2022-12-11T07:46:16;20.45;;;11.02;;
17686;SDS011;8962;52.538;13.266;2022-12-11T07:48:45;21.85;;;11.18;;
17686;SDS011;8962;52.538;13.266;2022-12-11T07:51:15;23.00;;;10.90;;
17686;SDS011;8962;52.538;13.266;2022-12-11T07:53:47;20.15;;;11.55;;
17686;SDS011;8962;52.538;13.266;2022-12-11T07:56:17;24.60;;;11.95;;
17686;SDS011;8962;52.538;13.266;2022-12-11T07:58:49;25.95;;;11.32;;
17686;SDS011;8962;52.538;13.266;2022-12-11T08:01:17;21.20;;;11.23;;
17686;SDS011;8962;52.538;13.266;2022-12-11T08:03:47;19.40;;;10.65;;
17686;SDS011;8962;52.538;13.266;2022-12-11T08:06:15;21.98;;;11.43;;
17686;SDS011;8962;52.538;13.266;2022-12-11T08:08:43;20.70;;;10.07;;
17686;SDS011;8962;52.538;13.266;2022-12-11T08:11:10;19.25;;;10.60;;
17686;SDS011;8962;52.538;13.266;2022-12-11T08:13:39;19.00;;;10.35;;
17686;SDS011;8962;52.538;13.266;2022-12-11T08:16:09;23.13;;;10.55;;
17686;SDS011;8962;52.538;13.266;2022-12-11T08:18:38;20.67;;;10.57;;
17686;SDS011;8962;52.538;13.266;2022-12-11T08:21:08;19.95;;;10.30;;
17686;SDS011;8962;52.538;13.266;2022-12-11T08:23:36;19.58;;;9.93;;
17686;SDS011;8962;52.538;13.266;2022-12-11T08:26:05;17.80;;;10.00;;
17686;SDS011;8962;52.538;13.266;2022-12-11T08:28:35;18.75;;;9.60;;
17686;SDS011;8962;52.538;13.266;2022-12-11T08:31:04;18.17;;;9.40;;
17686;SDS011;8962;52.538;13.266;2022-12-11T08:33:34;22.95;;;10.30;;
17686;SDS011;8962;52.538;13.266;2022-12-11T08:36:03;18.15;;;10.00;;
17686;SDS011;8962;52.538;13.266;2022-12-11T08:38:32;20.08;;;9.02;;
17686;SDS011;8962;52.538;13.266;2022-12-11T08:41:06;18.08;;;9.32;;
17686;SDS011;8962;52.538;13.266;2022-12-11T08:43:34;20.35;;;10.57;;
17686;SDS011;8962;52.538;13.266;2022-12-11T08:46:01;18.88;;;10.40;;
17686;SDS011;8962;52.538;13.266;2022-12-11T08:48:29;19.88;;;10.43;;
17686;SDS011;8962;52.538;13.266;2022-12-11T08:50:59;21.08;;;10.77;;
17686;SDS011;8962;52.538;13.266;2022-12-11T08:53:27;19.02;;;9.55;;
17686;SDS011;8962;52.538;13.266;2022-12-11T08:55:59;19.42;;;10.02;;
17686;SDS011;8962;52.538;13.266;2022-12-11T08:58:28;20.33;;;9.50;;
17686;SDS011;8962;52.538;13.266;2022-12-11T09:03:52;21.65;;;10.10;;
17686;SDS011;8962;52.538;13.266;2022-12-11T09:06:23;21.10;;;9.82;;
17686;SDS011;8962;52.538;13.266;2022-12-11T09:08:54;19.20;;;10.10;;
17686;SDS011;8962;52.538;13.266;2022-12-11T09:11:25;20.45;;;9.90;;
17686;SDS011;8962;52.538;13.266;2022-12-11T09:13:54;18.40;;;10.13;;
17686;SDS011;8962;52.538;13.266;2022-12-11T09:16:24;19.80;;;10.45;;
17686;SDS011;8962;52.538;13.266;2022-12-11T09:18:54;21.50;;;10.23;;
17686;SDS011;8962;52.538;13.266;2022-12-11T09:21:29;19.05;;;10.35;;
17686;SDS011;8962;52.538;13.266;2022-12-11T09:23:57;19.67;;;10.13;;
17686;SDS011;8962;52.538;13.266;2022-12-11T09:26:26;25.00;;;10.73;;
17686;SDS011;8962;52.538;13.266;2022-12-11T09:28:55;17.70;;;10.57;;
17686;SDS011;8962;52.538;13.266;2022-12-11T09:31:28;19.80;;;9.93;;
17686;SDS011;8962;52.538;13.266;2022-12-11T09:33:58;20.70;;;10.48;;
17686;SDS011;8962;52.538;13.266;2022-12-11T09:36:26;21.50;;;10.35;;
17686;SDS011;8962;52.538;13.266;2022-12-11T09:38:58;17.02;;;10.30;;
17686;SDS011;8962;52.538;13.266;2022-12-11T09:41:33;18.73;;;10.10;;
17686;SDS011;8962;52.538;13.266;2022-12-11T09:44:14;19.30;;;11.13;;
17686;SDS011;8962;52.538;13.266;2022-12-11T09:46:47;19.50;;;10.50;;
17686;SDS011;8962;52.538;13.266;2022-12-11T09:49:19;18.92;;;10.82;;
17686;SDS011;8962;52.538;13.266;2022-12-11T09:51:58;19.75;;;10.73;;
17686;SDS011;8962;52.538;13.266;2022-12-11T09:54:33;24.65;;;10.30;;
17686;SDS011;8962;52.538;13.266;2022-12-11T09:57:05;22.77;;;10.23;;
17686;SDS011;8962;52.538;13.266;2022-12-11T09:59:43;23.20;;;11.70;;
17686;SDS011;8962;52.538;13.266;2022-12-11T10:02:24;19.50;;;9.98;;
17686;SDS011;8962;52.538;13.266;2022-12-11T10:05:03;22.50;;;11.70;;
17686;SDS011;8962;52.538;13.266;2022-12-11T10:07:43;21.80;;;11.52;;
17686;SDS011;8962;52.538;13.266;2022-12-11T10:10:17;19.38;;;10.27;;
17686;SDS011;8962;52.538;13.266;2022-12-11T10:12:53;21.20;;;11.38;;
17686;SDS011;8962;52.538;13.266;2022-12-11T10:15:32;21.30;;;11.68;;
17686;SDS011;8962;52.538;13.266;2022-12-11T10:18:07;19.13;;;10.15;;
17686;SDS011;8962;52.538;13.266;2022-12-11T10:20:38;22.77;;;10.75;;
17686;SDS011;8962;52.538;13.266;2022-12-11T10:23:08;21.27;;;11.65;;
17686;SDS011;8962;52.538;13.266;2022-12-11T10:25:43;25.08;;;12.10;;
17686;SDS011;8962;52.538;13.266;2022-12-11T10:28:16;19.23;;;10.52;;
17686;SDS011;8962;52.538;13.266;2022-12-11T10:30:47;18.60;;;10.13;;
17686;SDS011;8962;52.538;13.266;2022-12-11T10:33:19;20.70;;;10.57;;
17686;SDS011;8962;52.538;13.266;2022-12-11T10:35:51;19.38;;;10.45;;
17686;SDS011;8962;52.538;13.266;2022-12-11T10:38:23;20.13;;;9.70;;
17686;SDS011;8962;52.538;13.266;2022-12-11T10:40:54;20.90;;;10.45;;
17686;SDS011;8962;52.538;13.266;2022-12-11T10:43:32;19.90;;;10.25;;
17686;SDS011;8962;52.538;13.266;2022-12-11T10:46:01;22.00;;;11.07;;
17686;SDS011;8962;52.538;13.266;2022-12-11T10:48:30;21.75;;;10.93;;
17686;SDS011;8962;52.538;13.266;2022-12-11T10:50:59;19.30;;;10.93;;
17686;SDS011;8962;52.538;13.266;2022-12-11T10:53:29;19.60;;;11.25;;
17686;SDS011;8962;52.538;13.266;2022-12-11T10:55:57;21.55;;;10.88;;
17686;SDS011;8962;52.538;13.266;2022-12-11T10:58:29;17.50;;;10.00;;
17686;SDS011;8962;52.538;13.266;2022-12-11T11:01:05;17.02;;;9.90;;
17686;SDS011;8962;52.538;13.266;2022-12-11T11:03:39;21.27;;;10.13;;
17686;SDS011;8962;52.538;13.266;2022-12-11T11:06:18;21.02;;;10.35;;
17686;SDS011;8962;52.538;13.266;2022-12-11T11:08:49;19.52;;;10.30;;
17686;SDS011;8962;52.538;13.266;2022-12-11T11:11:22;22.35;;;10.55;;
17686;SDS011;8962;52.538;13.266;2022-12-11T11:13:51;20.02;;;11.35;;
17686;SDS011;8962;52.538;13.266;2022-12-11T11:16:35;20.58;;;11.93;;
17686;SDS011;8962;52.538;13.266;2022-12-11T11:19:05;21.58;;;11.23;;
17686;SDS011;8962;52.538;13.266;2022-12-11T11:21:33;21.83;;;11.02;;
17686;SDS011;8962;52.538;13.266;2022-12-11T11:24:03;18.52;;;10.50;;
17686;SDS011;8962;52.538;13.266;2022-12-11T11:26:33;20.85;;;11.45;;
17686;SDS011;8962;52.538;13.266;2022-12-11T11:29:00;21.23;;;11.55;;
17686;SDS011;8962;52.538;13.266;2022-12-11T11:31:30;24.75;;;12.75;;
17686;SDS011;8962;52.538;13.266;2022-12-11T11:33:59;20.02;;;11.52;;
17686;SDS011;8962;52.538;13.266;2022-12-11T11:36:29;26.23;;;12.23;;
17686;SDS011;8962;52.538;13.266;2022-12-11T11:41:46;21.88;;;11.10;;
17686;SDS011;8962;52.538;13.266;2022-12-11T11:44:18;22.33;;;10.90;;
17686;SDS011;8962;52.538;13.266;2022-12-11T11:46:53;22.23;;;10.75;;
17686;SDS011;8962;52.538;13.266;2022-12-11T11:49:26;20.50;;;11.30;;
17686;SDS011;8962;52.538;13.266;2022-12-11T11:52:03;20.40;;;10.15;;
17686;SDS011;8962;52.538;13.266;2022-12-11T11:54:44;19.20;;;10.80;;
17686;SDS011;8962;52.538;13.266;2022-12-11T11:57:19;19.00;;;10.68;;
17686;SDS011;8962;52.538;13.266;2022-12-11T11:59:53;17.15;;;10.07;;
17686;SDS011;8962;52.538;13.266;2022-12-11T12:02:39;21.23;;;10.57;;
17686;SDS011;8962;52.538;13.266;2022-12-11T12:05:08;22.30;;;11.75;;
17686;SDS011;8962;52.538;13.266;2022-12-11T12:07:40;20.13;;;10.60;;
17686;SDS011;8962;52.538;13.266;2022-12-11T12:10:20;22.92;;;12.45;;
17686;SDS011;8962;52.538;13.266;2022-12-11T12:12:56;19.95;;;11.02;;
17686;SDS011;8962;52.538;13.266;2022-12-11T12:15:29;18.65;;;10.18;;
17686;SDS011;8962;52.538;13.266;2022-12-11T12:18:06;18.40;;;10.70;;
17686;SDS011;8962;52.538;13.266;2022-12-11T12:20:41;19.83;;;10.65;;
17686;SDS011;8962;52.538;13.266;2022-12-11T12:23:27;19.48;;;10.95;;
17686;SDS011;8962;52.538;13.266;2022-12-11T12:26:07;20.40;;;10.38;;
17686;SDS011;8962;52.538;13.266;2022-12-11T12:28:43;18.02;;;10.07;;
17686;SDS011;8962;52.538;13.266;2022-12-11T12:31:26;21.83;;;11.65;;
17686;SDS011;8962;52.538;13.266;2022-12-11T12:34:04;21.13;;;11.00;;
17686;SDS011;8962;52.538;13.266;2022-12-11T12:36:40;21.75;;;10.95;;
17686;SDS011;8962;52.538;13.266;2022-12-11T12:39:18;19.80;;;10.70;;
17686;SDS011;8962;52.538;13.266;2022-12-11T12:41:56;20.45;;;10.82;;
17686;SDS011;8962;52.538;13.266;2022-12-11T12:44:30;20.27;;;10.35;;
17686;SDS011;8962;52.538;13.266;2022-12-11T12:47:07;22.90;;;11.77;;
17686;SDS011;8962;52.538;13.266;2022-12-11T12:49:39;22.50;;;10.80;;
17686;SDS011;8962;52.538;13.266;2022-12-11T12:52:10;25.20;;;13.63;;
17686;SDS011;8962;52.538;13.266;2022-12-11T12:54:41;20.85;;;10.95;;
17686;SDS011;8962;52.538;13.266;2022-12-11T12:57:35;26.90;;;12.57;;
17686;SDS011;8962;52.538;13.266;2022-12-11T13:00:07;22.75;;;11.95;;
17686;SDS011;8962;52.538;13.266;2022-12-11T13:02:36;19.90;;;11.00;;
17686;SDS011;8962;52.538;13.266;2022-12-11T13:05:18;22.05;;;10.70;;
17686;SDS011;8962;52.538;13.266;2022-12-11T13:07:49;20.38;;;11.73;;
17686;SDS011;8962;52.538;13.266;2022-12-11T13:10:21;20.50;;;10.20;;
17686;SDS011;8962;52.538;13.266;2022-12-11T13:12:55;20.80;;;10.63;;
17686;SDS011;8962;52.538;13.266;2022-12-11T13:15:24;20.90;;;10.80;;
17686;SDS011;8962;52.538;13.266;2022-12-11T13:18:01;19.10;;;11.00;;
17686;SDS011;8962;52.538;13.266;2022-12-11T13:20:31;22.33;;;10.88;;
17686;SDS011;8962;52.538;13.266;2022-12-11T13:23:08;20.75;;;10.85;;
17686;SDS011;8962;52.538;13.266;2022-12-11T13:25:50;19.80;;;10.80;;
17686;SDS011;8962;52.538;13.266;2022-12-11T13:28:27;21.75;;;11.52;;
17686;SDS011;8962;52.538;13.266;2022-12-11T13:30:58;19.88;;;10.45;;
17686;SDS011;8962;52.538;13.266;2022-12-11T13:33:32;18.15;;;10.57;;
17686;SDS011;8962;52.538;13.266;2022-12-11T13:36:23;19.95;;;10.32;;
17686;SDS011;8962;52.538;13.266;2022-12-11T13:38:59;18.42;;;10.63;;
17686;SDS011;8962;52.538;13.266;2022-12-11T13:41:31;20.08;;;11.18;;
17686;SDS011;8962;52.538;13.266;2022-12-11T13:44:02;20.77;;;11.13;;
17686;SDS011;8962;52.538;13.266;2022-12-11T13:46:33;19.02;;;10.57;;
17686;SDS011;8962;52.538;13.266;2022-12-11T13:49:03;20.70;;;10.60;;
17686;SDS011;8962;52.538;13.266;2022-12-11T13:51:32;18.45;;;10.25;;
17686;SDS011;8962;52.538;13.266;2022-12-11T13:54:03;23.13;;;10.38;;
17686;SDS011;8962;52.538;13.266;2022-12-11T13:56:32;19.60;;;10.15;;
17686;SDS011;8962;52.538;13.266;2022-12-11T13:58:59;19.02;;;10.27;;
17686;SDS011;8962;52.538;13.266;2022-12-11T14:01:29;20.92;;;10.30;;
17686;SDS011;8962;52.538;13.266;2022-12-11T14:03:59;20.52;;;10.65;;
17686;SDS011;8962;52.538;13.266;2022-12-11T14:06:29;19.75;;;10.38;;
17686;SDS011;8962;52.538;13.266;2022-12-11T14:08:58;21.73;;;11.07;;
17686;SDS011;8962;52.538;13.266;2022-12-11T14:11:28;21.52;;;10.93;;
17686;SDS011;8962;52.538;13.266;2022-12-11T14:14:02;19.08;;;10.15;;
17686;SDS011;8962;52.538;13.266;2022-12-11T14:16:41;20.60;;;10.63;;
17686;SDS011;8962;52.538;13.266;2022-12-11T14:19:09;17.42;;;9.55;;
17686;SDS011;8962;52.538;13.266;2022-12-11T14:21:42;20.83;;;10.60;;
17686;SDS011;8962;52.538;13.266;2022-12-11T14:24:25;21.05;;;10.20;;
17686;SDS011;8962;52.538;13.266;2022-12-11T14:26:53;20.25;;;10.93;;
17686;SDS011;8962;52.538;13.266;2022-12-11T14:29:24;21.23;;;10.88;;
17686;SDS011;8962;52.538;13.266;2022-12-11T14:31:54;20.88;;;10.60;;
17686;SDS011;8962;52.538;13.266;2022-12-11T14:34:25;21.63;;;11.50;;
17686;SDS011;8962;52.538;13.266;2022-12-11T14:36:58;20.05;;;10.15;;
17686;SDS011;8962;52.538;13.266;2022-12-11T14:39:32;23.80;;;12.38;;
17686;SDS011;8962;52.538;13.266;2022-12-11T14:42:05;20.48;;;11.15;;
17686;SDS011;8962;52.538;13.266;2022-12-11T14:44:40;22.50;;;11.27;;
17686;SDS011;8962;52.538;13.266;2022-12-11T14:47:13;22.70;;;11.38;;
17686;SDS011;8962;52.538;13.266;2022-12-11T14:49:44;24.67;;;11.73;;
17686;SDS011;8962;52.538;13.266;2022-12-11T14:52:17;22.40;;;12.15;;